sensor_id;sensor_type;location;lat;lon;timestamp;P1;durP1;ratioP1;P2;durP2;ratioP2
72388;SDS011;60566;48.062;9.930;2023-02-07T00:01:49;25.20;;;11.55;;
72388;SDS011;60566;48.062;9.930;2023-02-07T00:04:16;20.15;;;10.20;;
72388;SDS011;60566;48.062;9.930;2023-02-07T00:06:41;19.60;;;9.85;;
72388;SDS011;60566;48.062;9.930;2023-02-07T00:09:07;22.92;;;10.75;;
72388;SDS011;60566;48.062;9.930;2023-02-07T00:11:34;18.15;;;10.52;;
72388;SDS011;60566;48.062;9.930;2023-02-07T00:14:00;23.90;;;9.27;;
72388;SDS011;60566;48.062;9.930;2023-02-07T00:16:26;19.27;;;8.90;;
72388;SDS011;60566;48.062;9.930;2023-02-07T00:18:52;23.77;;;10.35;;
72388;SDS011;60566;48.062;9.930;2023-02-07T00:21:19;17.75;;;9.52;;
72388;SDS011;60566;48.062;9.930;2023-02-07T00:23:45;19.02;;;9.40;;
72388;SDS011;60566;48.062;9.930;2023-02-07T00:26:11;23.52;;;10.68;;
72388;SDS011;60566;48.062;9.930;2023-02-07T00:28:38;20.25;;;10.13;;
72388;SDS011;60566;48.062;9.930;2023-02-07T00:31:05;21.05;;;10.00;;
72388;SDS011;60566;48.062;9.930;2023-02-07T00:33:31;23.38;;;11.38;;
72388;SDS011;60566;48.062;9.930;2023-02-07T00:35:58;16.33;;;9.50;;
72388;SDS011;60566;48.062;9.930;2023-02-07T00:38:26;17.52;;;10.30;;
72388;SDS011;60566;48.062;9.930;2023-02-07T00:40:51;21.65;;;10.73;;
72388;SDS011;60566;48.062;9.930;2023-02-07T00:43:17;19.80;;;10.82;;
72388;SDS011;60566;48.062;9.930;2023-02-07T00:45:42;18.88;;;9.60;;
72388;SDS011;60566;48.062;9.930;2023-02-07T00:48:08;19.85;;;10.70;;
72388;SDS011;60566;48.062;9.930;2023-02-07T00:50:33;20.80;;;10.20;;
72388;SDS011;60566;48.062;9.930;2023-02-07T00:52:58;19.30;;;10.80;;
72388;SDS011;60566;48.062;9.930;2023-02-07T00:55:25;16.42;;;9.93;;
72388;SDS011;60566;48.062;9.930;2023-02-07T00:57:50;18.52;;;8.75;;
72388;SDS011;60566;48.062;9.930;2023-02-07T01:00:16;18.27;;;10.48;;
72388;SDS011;60566;48.062;9.930;2023-02-07T01:02:41;16.95;;;10.20;;
72388;SDS011;60566;48.062;9.930;2023-02-07T01:05:07;22.98;;;10.57;;
72388;SDS011;60566;48.062;9.930;2023-02-07T01:07:32;16.67;;;8.52;;
72388;SDS011;60566;48.062;9.930;2023-02-07T01:09:58;21.88;;;11.45;;
72388;SDS011;60566;48.062;9.930;2023-02-07T01:12:25;20.92;;;11.35;;
72388;SDS011;60566;48.062;9.930;2023-02-07T01:14:50;23.10;;;10.70;;
72388;SDS011;60566;48.062;9.930;2023-02-07T01:17:15;26.52;;;12.52;;
72388;SDS011;60566;48.062;9.930;2023-02-07T01:19:41;23.45;;;13.00;;
72388;SDS011;60566;48.062;9.930;2023-02-07T01:22:06;25.10;;;13.43;;
72388;SDS011;60566;48.062;9.930;2023-02-07T01:24:31;22.88;;;11.73;;
72388;SDS011;60566;48.062;9.930;2023-02-07T01:26:57;21.02;;;10.05;;
72388;SDS011;60566;48.062;9.930;2023-02-07T01:29:24;22.80;;;11.70;;
72388;SDS011;60566;48.062;9.930;2023-02-07T01:31:49;24.48;;;11.68;;
72388;SDS011;60566;48.062;9.930;2023-02-07T01:34:14;27.45;;;12.13;;
72388;SDS011;60566;48.062;9.930;2023-02-07T01:36:40;28.73;;;10.70;;
72388;SDS011;60566;48.062;9.930;2023-02-07T01:39:05;22.75;;;11.82;;
72388;SDS011;60566;48.062;9.930;2023-02-07T01:41:30;27.08;;;12.48;;
72388;SDS011;60566;48.062;9.930;2023-02-07T01:43:58;22.40;;;11.00;;
72388;SDS011;60566;48.062;9.930;2023-02-07T01:48:52;26.55;;;10.68;;
72388;SDS011;60566;48.062;9.930;2023-02-07T01:51:19;21.92;;;12.02;;
72388;SDS011;60566;48.062;9.930;2023-02-07T01:53:44;19.15;;;10.65;;
72388;SDS011;60566;48.062;9.930;2023-02-07T01:56:11;26.10;;;11.70;;
72388;SDS011;60566;48.062;9.930;2023-02-07T01:58:37;22.02;;;10.88;;
72388;SDS011;60566;48.062;9.930;2023-02-07T02:01:04;29.00;;;13.60;;
72388;SDS011;60566;48.062;9.930;2023-02-07T02:03:33;26.85;;;14.43;;
72388;SDS011;60566;48.062;9.930;2023-02-07T02:05:59;21.30;;;11.27;;
72388;SDS011;60566;48.062;9.930;2023-02-07T02:08:25;23.95;;;12.48;;
72388;SDS011;60566;48.062;9.930;2023-02-07T02:10:58;21.52;;;11.68;;
72388;SDS011;60566;48.062;9.930;2023-02-07T02:13:32;19.27;;;9.82;;
72388;SDS011;60566;48.062;9.930;2023-02-07T02:16:03;25.90;;;12.32;;
72388;SDS011;60566;48.062;9.930;2023-02-07T02:18:48;22.15;;;12.07;;
72388;SDS011;60566;48.062;9.930;2023-02-07T02:21:36;20.13;;;10.50;;
72388;SDS011;60566;48.062;9.930;2023-02-07T02:24:24;20.25;;;11.27;;
72388;SDS011;60566;48.062;9.930;2023-02-07T02:27:14;19.50;;;10.18;;
72388;SDS011;60566;48.062;9.930;2023-02-07T02:30:01;31.48;;;11.32;;
72388;SDS011;60566;48.062;9.930;2023-02-07T02:32:57;21.63;;;11.18;;
72388;SDS011;60566;48.062;9.930;2023-02-07T02:35:29;16.20;;;8.63;;
72388;SDS011;60566;48.062;9.930;2023-02-07T02:38:01;18.98;;;10.05;;
72388;SDS011;60566;48.062;9.930;2023-02-07T02:40:35;28.27;;;14.05;;
72388;SDS011;60566;48.062;9.930;2023-02-07T02:43:04;24.08;;;13.55;;
72388;SDS011;60566;48.062;9.930;2023-02-07T02:45:34;21.80;;;11.45;;
72388;SDS011;60566;48.062;9.930;2023-02-07T02:48:03;31.33;;;13.00;;
72388;SDS011;60566;48.062;9.930;2023-02-07T02:50:30;24.48;;;12.95;;
72388;SDS011;60566;48.062;9.930;2023-02-07T02:52:58;22.92;;;11.50;;
72388;SDS011;60566;48.062;9.930;2023-02-07T02:55:28;25.63;;;13.15;;
72388;SDS011;60566;48.062;9.930;2023-02-07T02:58:13;29.27;;;13.95;;
72388;SDS011;60566;48.062;9.930;2023-02-07T03:00:47;25.00;;;13.48;;
72388;SDS011;60566;48.062;9.930;2023-02-07T03:03:27;25.13;;;13.68;;
72388;SDS011;60566;48.062;9.930;2023-02-07T03:06:02;23.25;;;12.45;;
72388;SDS011;60566;48.062;9.930;2023-02-07T03:08:34;22.25;;;13.45;;
72388;SDS011;60566;48.062;9.930;2023-02-07T03:11:06;25.77;;;15.45;;
72388;SDS011;60566;48.062;9.930;2023-02-07T03:13:35;34.58;;;17.30;;
72388;SDS011;60566;48.062;9.930;2023-02-07T03:16:06;20.13;;;13.18;;
72388;SDS011;60566;48.062;9.930;2023-02-07T03:18:39;30.30;;;15.20;;
72388;SDS011;60566;48.062;9.930;2023-02-07T03:21:11;27.65;;;14.60;;
72388;SDS011;60566;48.062;9.930;2023-02-07T03:23:41;23.33;;;12.40;;
72388;SDS011;60566;48.062;9.930;2023-02-07T03:26:08;27.55;;;14.45;;
72388;SDS011;60566;48.062;9.930;2023-02-07T03:28:33;26.85;;;14.43;;
72388;SDS011;60566;48.062;9.930;2023-02-07T03:30:59;26.55;;;13.63;;
72388;SDS011;60566;48.062;9.930;2023-02-07T03:33:25;26.80;;;14.50;;
72388;SDS011;60566;48.062;9.930;2023-02-07T03:35:54;22.60;;;12.23;;
72388;SDS011;60566;48.062;9.930;2023-02-07T03:38:21;31.10;;;15.25;;
72388;SDS011;60566;48.062;9.930;2023-02-07T03:40:48;26.92;;;14.27;;
72388;SDS011;60566;48.062;9.930;2023-02-07T03:43:19;23.17;;;12.57;;
72388;SDS011;60566;48.062;9.930;2023-02-07T03:45:46;29.15;;;15.88;;
72388;SDS011;60566;48.062;9.930;2023-02-07T03:48:12;30.23;;;16.45;;
72388;SDS011;60566;48.062;9.930;2023-02-07T03:50:37;26.08;;;14.70;;
72388;SDS011;60566;48.062;9.930;2023-02-07T03:53:04;30.15;;;15.18;;
72388;SDS011;60566;48.062;9.930;2023-02-07T03:55:30;27.88;;;14.35;;
72388;SDS011;60566;48.062;9.930;2023-02-07T03:57:55;32.80;;;17.00;;
72388;SDS011;60566;48.062;9.930;2023-02-07T04:00:21;26.80;;;13.85;;
72388;SDS011;60566;48.062;9.930;2023-02-07T04:02:46;24.33;;;14.38;;
72388;SDS011;60566;48.062;9.930;2023-02-07T04:05:11;22.92;;;12.55;;
72388;SDS011;60566;48.062;9.930;2023-02-07T04:07:37;23.92;;;13.75;;
72388;SDS011;60566;48.062;9.930;2023-02-07T04:10:04;21.08;;;10.35;;
72388;SDS011;60566;48.062;9.930;2023-02-07T04:12:30;26.55;;;12.77;;
72388;SDS011;60566;48.062;9.930;2023-02-07T04:14:55;27.80;;;14.52;;
72388;SDS011;60566;48.062;9.930;2023-02-07T04:17:20;27.55;;;14.18;;
72388;SDS011;60566;48.062;9.930;2023-02-07T04:19:46;23.30;;;12.68;;
72388;SDS011;60566;48.062;9.930;2023-02-07T04:22:11;28.38;;;13.52;;
72388;SDS011;60566;48.062;9.930;2023-02-07T04:24:36;23.92;;;15.45;;
72388;SDS011;60566;48.062;9.930;2023-02-07T04:27:03;19.63;;;12.32;;
72388;SDS011;60566;48.062;9.930;2023-02-07T04:29:29;19.27;;;11.32;;
72388;SDS011;60566;48.062;9.930;2023-02-07T04:31:54;26.40;;;14.05;;
72388;SDS011;60566;48.062;9.930;2023-02-07T04:34:19;24.83;;;13.48;;
72388;SDS011;60566;48.062;9.930;2023-02-07T04:36:45;25.83;;;12.68;;
72388;SDS011;60566;48.062;9.930;2023-02-07T04:39:10;28.17;;;13.75;;
72388;SDS011;60566;48.062;9.930;2023-02-07T04:41:35;22.83;;;13.20;;
72388;SDS011;60566;48.062;9.930;2023-02-07T04:44:02;27.00;;;11.60;;
72388;SDS011;60566;48.062;9.930;2023-02-07T04:46:27;20.67;;;13.00;;
72388;SDS011;60566;48.062;9.930;2023-02-07T04:48:53;20.27;;;12.93;;
72388;SDS011;60566;48.062;9.930;2023-02-07T04:51:18;18.02;;;9.88;;
72388;SDS011;60566;48.062;9.930;2023-02-07T04:53:43;18.55;;;10.82;;
72388;SDS011;60566;48.062;9.930;2023-02-07T04:56:10;22.30;;;12.48;;
72388;SDS011;60566;48.062;9.930;2023-02-07T04:58:35;25.70;;;14.00;;
72388;SDS011;60566;48.062;9.930;2023-02-07T05:01:02;27.23;;;13.13;;
72388;SDS011;60566;48.062;9.930;2023-02-07T05:03:27;20.75;;;11.80;;
72388;SDS011;60566;48.062;9.930;2023-02-07T05:05:53;22.67;;;12.18;;
72388;SDS011;60566;48.062;9.930;2023-02-07T05:08:18;22.15;;;12.52;;
72388;SDS011;60566;48.062;9.930;2023-02-07T05:10:44;21.90;;;11.70;;
72388;SDS011;60566;48.062;9.930;2023-02-07T05:13:09;18.30;;;11.43;;
72388;SDS011;60566;48.062;9.930;2023-02-07T05:15:35;22.92;;;12.70;;
72388;SDS011;60566;48.062;9.930;2023-02-07T05:18:02;20.48;;;12.27;;
72388;SDS011;60566;48.062;9.930;2023-02-07T05:20:27;22.63;;;13.45;;
72388;SDS011;60566;48.062;9.930;2023-02-07T05:22:52;20.88;;;10.85;;
72388;SDS011;60566;48.062;9.930;2023-02-07T05:25:18;20.10;;;10.38;;
72388;SDS011;60566;48.062;9.930;2023-02-07T05:27:43;18.90;;;11.10;;
72388;SDS011;60566;48.062;9.930;2023-02-07T05:30:09;19.40;;;11.13;;
72388;SDS011;60566;48.062;9.930;2023-02-07T05:32:35;16.17;;;9.15;;
72388;SDS011;60566;48.062;9.930;2023-02-07T05:35:02;24.27;;;14.25;;
72388;SDS011;60566;48.062;9.930;2023-02-07T05:37:27;26.02;;;12.55;;
72388;SDS011;60566;48.062;9.930;2023-02-07T05:39:53;19.92;;;11.05;;
72388;SDS011;60566;48.062;9.930;2023-02-07T05:42:18;22.92;;;12.50;;
72388;SDS011;60566;48.062;9.930;2023-02-07T05:44:43;28.13;;;12.32;;
72388;SDS011;60566;48.062;9.930;2023-02-07T05:47:09;22.48;;;12.38;;
72388;SDS011;60566;48.062;9.930;2023-02-07T05:49:34;22.02;;;12.70;;
72388;SDS011;60566;48.062;9.930;2023-02-07T05:52:01;20.10;;;12.73;;
72388;SDS011;60566;48.062;9.930;2023-02-07T05:54:26;25.67;;;12.52;;
72388;SDS011;60566;48.062;9.930;2023-02-07T05:56:52;21.80;;;11.80;;
72388;SDS011;60566;48.062;9.930;2023-02-07T05:59:17;23.33;;;13.27;;
72388;SDS011;60566;48.062;9.930;2023-02-07T06:01:43;20.15;;;11.63;;
72388;SDS011;60566;48.062;9.930;2023-02-07T06:04:08;24.98;;;13.52;;
72388;SDS011;60566;48.062;9.930;2023-02-07T06:06:33;20.25;;;11.77;;
72388;SDS011;60566;48.062;9.930;2023-02-07T06:09:00;20.52;;;11.98;;
72388;SDS011;60566;48.062;9.930;2023-02-07T06:11:25;23.95;;;12.38;;
72388;SDS011;60566;48.062;9.930;2023-02-07T06:13:51;20.48;;;11.73;;
72388;SDS011;60566;48.062;9.930;2023-02-07T06:16:16;22.33;;;12.05;;
72388;SDS011;60566;48.062;9.930;2023-02-07T06:18:42;23.33;;;12.55;;
72388;SDS011;60566;48.062;9.930;2023-02-07T06:21:07;23.92;;;12.77;;
72388;SDS011;60566;48.062;9.930;2023-02-07T06:23:32;23.23;;;13.23;;
72388;SDS011;60566;48.062;9.930;2023-02-07T06:25:59;19.50;;;10.20;;
72388;SDS011;60566;48.062;9.930;2023-02-07T06:28:24;19.98;;;10.90;;
72388;SDS011;60566;48.062;9.930;2023-02-07T06:30:50;20.73;;;11.93;;
72388;SDS011;60566;48.062;9.930;2023-02-07T06:33:15;23.92;;;13.75;;
72388;SDS011;60566;48.062;9.930;2023-02-07T06:35:41;23.60;;;12.35;;
72388;SDS011;60566;48.062;9.930;2023-02-07T06:38:06;25.58;;;13.00;;
72388;SDS011;60566;48.062;9.930;2023-02-07T06:40:32;21.08;;;12.20;;
72388;SDS011;60566;48.062;9.930;2023-02-07T06:42:58;21.55;;;10.07;;
72388;SDS011;60566;48.062;9.930;2023-02-07T06:45:24;18.73;;;10.73;;
72388;SDS011;60566;48.062;9.930;2023-02-07T06:47:49;23.02;;;14.25;;
72388;SDS011;60566;48.062;9.930;2023-02-07T06:50:15;23.08;;;13.52;;
72388;SDS011;60566;48.062;9.930;2023-02-07T06:52:40;26.55;;;13.57;;
72388;SDS011;60566;48.062;9.930;2023-02-07T06:55:06;22.00;;;13.30;;
72388;SDS011;60566;48.062;9.930;2023-02-07T06:57:31;21.02;;;12.55;;
72388;SDS011;60566;48.062;9.930;2023-02-07T06:59:58;20.77;;;12.20;;
72388;SDS011;60566;48.062;9.930;2023-02-07T07:02:24;19.83;;;12.75;;
72388;SDS011;60566;48.062;9.930;2023-02-07T07:04:49;21.17;;;13.10;;
72388;SDS011;60566;48.062;9.930;2023-02-07T07:07:14;26.50;;;13.15;;
72388;SDS011;60566;48.062;9.930;2023-02-07T07:09:40;19.38;;;12.10;;
72388;SDS011;60566;48.062;9.930;2023-02-07T07:12:05;18.27;;;10.80;;
72388;SDS011;60566;48.062;9.930;2023-02-07T07:14:30;24.55;;;11.60;;
72388;SDS011;60566;48.062;9.930;2023-02-07T07:16:57;23.98;;;13.90;;
72388;SDS011;60566;48.062;9.930;2023-02-07T07:19:22;20.42;;;12.20;;
72388;SDS011;60566;48.062;9.930;2023-02-07T07:21:48;20.98;;;11.48;;
72388;SDS011;60566;48.062;9.930;2023-02-07T07:24:13;22.20;;;12.50;;
72388;SDS011;60566;48.062;9.930;2023-02-07T07:26:38;23.58;;;13.38;;
72388;SDS011;60566;48.062;9.930;2023-02-07T07:29:04;24.77;;;12.02;;
72388;SDS011;60566;48.062;9.930;2023-02-07T07:31:29;22.85;;;11.43;;
72388;SDS011;60566;48.062;9.930;2023-02-07T07:33:56;22.92;;;11.48;;
72388;SDS011;60566;48.062;9.930;2023-02-07T07:36:22;29.00;;;12.60;;
72388;SDS011;60566;48.062;9.930;2023-02-07T07:38:47;21.92;;;12.93;;
72388;SDS011;60566;48.062;9.930;2023-02-07T07:41:13;22.05;;;12.50;;
72388;SDS011;60566;48.062;9.930;2023-02-07T07:43:38;26.05;;;12.07;;
72388;SDS011;60566;48.062;9.930;2023-02-07T07:46:03;23.75;;;14.02;;
72388;SDS011;60566;48.062;9.930;2023-02-07T07:48:29;25.88;;;13.85;;
72388;SDS011;60566;48.062;9.930;2023-02-07T07:50:56;21.65;;;12.32;;
72388;SDS011;60566;48.062;9.930;2023-02-07T07:53:21;25.63;;;12.43;;
72388;SDS011;60566;48.062;9.930;2023-02-07T07:55:47;20.45;;;12.13;;
72388;SDS011;60566;48.062;9.930;2023-02-07T07:58:13;26.25;;;13.13;;
72388;SDS011;60566;48.062;9.930;2023-02-07T08:00:38;21.50;;;11.43;;
72388;SDS011;60566;48.062;9.930;2023-02-07T08:03:04;25.65;;;14.48;;
72388;SDS011;60566;48.062;9.930;2023-02-07T08:05:29;26.77;;;13.82;;
72388;SDS011;60566;48.062;9.930;2023-02-07T08:07:56;27.25;;;14.80;;
72388;SDS011;60566;48.062;9.930;2023-02-07T08:10:21;26.20;;;12.63;;
72388;SDS011;60566;48.062;9.930;2023-02-07T08:12:47;28.00;;;14.40;;
72388;SDS011;60566;48.062;9.930;2023-02-07T08:15:12;24.98;;;14.32;;
72388;SDS011;60566;48.062;9.930;2023-02-07T08:17:37;26.65;;;12.98;;
72388;SDS011;60566;48.062;9.930;2023-02-07T08:20:03;31.77;;;15.52;;
72388;SDS011;60566;48.062;9.930;2023-02-07T08:22:28;26.10;;;13.80;;
72388;SDS011;60566;48.062;9.930;2023-02-07T08:24:55;22.27;;;12.43;;
72388;SDS011;60566;48.062;9.930;2023-02-07T08:27:21;26.98;;;14.73;;
72388;SDS011;60566;48.062;9.930;2023-02-07T08:29:46;26.50;;;13.93;;
72388;SDS011;60566;48.062;9.930;2023-02-07T08:32:12;28.25;;;14.20;;
72388;SDS011;60566;48.062;9.930;2023-02-07T08:34:37;22.25;;;13.02;;
72388;SDS011;60566;48.062;9.930;2023-02-07T08:37:03;23.45;;;11.73;;
72388;SDS011;60566;48.062;9.930;2023-02-07T08:39:29;25.33;;;12.45;;
72388;SDS011;60566;48.062;9.930;2023-02-07T08:41:55;22.17;;;13.95;;
72388;SDS011;60566;48.062;9.930;2023-02-07T08:44:21;22.92;;;14.68;;
72388;SDS011;60566;48.062;9.930;2023-02-07T08:46:46;27.33;;;13.48;;
72388;SDS011;60566;48.062;9.930;2023-02-07T08:49:11;29.40;;;15.48;;
72388;SDS011;60566;48.062;9.930;2023-02-07T08:51:37;24.05;;;13.55;;
72388;SDS011;60566;48.062;9.930;2023-02-07T08:54:03;27.20;;;15.07;;
72388;SDS011;60566;48.062;9.930;2023-02-07T08:56:28;26.63;;;13.57;;
72388;SDS011;60566;48.062;9.930;2023-02-07T08:58:55;28.65;;;14.60;;
72388;SDS011;60566;48.062;9.930;2023-02-07T09:01:20;23.52;;;13.43;;
72388;SDS011;60566;48.062;9.930;2023-02-07T09:03:46;24.23;;;13.90;;
72388;SDS011;60566;48.062;9.930;2023-02-07T09:06:11;28.52;;;14.88;;
72388;SDS011;60566;48.062;9.930;2023-02-07T09:08:36;24.33;;;13.20;;
72388;SDS011;60566;48.062;9.930;2023-02-07T09:11:02;27.17;;;15.63;;
72388;SDS011;60566;48.062;9.930;2023-02-07T09:13:27;23.30;;;12.35;;
72388;SDS011;60566;48.062;9.930;2023-02-07T09:15:54;33.20;;;16.17;;
72388;SDS011;60566;48.062;9.930;2023-02-07T09:18:19;29.98;;;15.15;;
72388;SDS011;60566;48.062;9.930;2023-02-07T09:20:45;27.15;;;13.15;;
72388;SDS011;60566;48.062;9.930;2023-02-07T09:23:10;23.88;;;13.88;;
72388;SDS011;60566;48.062;9.930;2023-02-07T09:25:36;29.63;;;17.88;;
72388;SDS011;60566;48.062;9.930;2023-02-07T09:28:01;24.45;;;15.05;;
72388;SDS011;60566;48.062;9.930;2023-02-07T09:30:27;31.08;;;15.65;;
72388;SDS011;60566;48.062;9.930;2023-02-07T09:32:53;28.23;;;14.55;;
72388;SDS011;60566;48.062;9.930;2023-02-07T09:35:19;30.45;;;16.20;;
72388;SDS011;60566;48.062;9.930;2023-02-07T09:37:44;29.40;;;16.27;;
72388;SDS011;60566;48.062;9.930;2023-02-07T09:40:10;28.75;;;16.33;;
72388;SDS011;60566;48.062;9.930;2023-02-07T09:42:40;27.63;;;14.25;;
72388;SDS011;60566;48.062;9.930;2023-02-07T09:45:08;33.22;;;15.73;;
72388;SDS011;60566;48.062;9.930;2023-02-07T09:47:35;24.83;;;13.85;;
72388;SDS011;60566;48.062;9.930;2023-02-07T09:50:05;28.05;;;14.57;;
72388;SDS011;60566;48.062;9.930;2023-02-07T09:52:33;26.23;;;14.63;;
72388;SDS011;60566;48.062;9.930;2023-02-07T09:55:00;26.17;;;15.00;;
72388;SDS011;60566;48.062;9.930;2023-02-07T09:57:27;27.05;;;15.10;;
72388;SDS011;60566;48.062;9.930;2023-02-07T09:59:57;30.05;;;15.30;;
72388;SDS011;60566;48.062;9.930;2023-02-07T10:02:26;24.30;;;12.85;;
72388;SDS011;60566;48.062;9.930;2023-02-07T10:04:56;26.65;;;13.98;;
72388;SDS011;60566;48.062;9.930;2023-02-07T10:07:26;26.52;;;15.35;;
72388;SDS011;60566;48.062;9.930;2023-02-07T10:09:51;26.67;;;15.93;;
72388;SDS011;60566;48.062;9.930;2023-02-07T10:12:21;29.40;;;15.52;;
72388;SDS011;60566;48.062;9.930;2023-02-07T10:14:57;25.23;;;13.95;;
72388;SDS011;60566;48.062;9.930;2023-02-07T10:17:36;27.23;;;14.38;;
72388;SDS011;60566;48.062;9.930;2023-02-07T10:20:18;34.88;;;16.92;;
72388;SDS011;60566;48.062;9.930;2023-02-07T10:22:53;35.20;;;17.92;;
72388;SDS011;60566;48.062;9.930;2023-02-07T10:25:25;26.98;;;15.05;;
72388;SDS011;60566;48.062;9.930;2023-02-07T10:27:57;29.30;;;15.10;;
72388;SDS011;60566;48.062;9.930;2023-02-07T10:30:45;28.67;;;14.27;;
72388;SDS011;60566;48.062;9.930;2023-02-07T10:33:13;27.38;;;14.95;;
72388;SDS011;60566;48.062;9.930;2023-02-07T10:35:39;31.33;;;15.20;;
72388;SDS011;60566;48.062;9.930;2023-02-07T10:38:11;28.80;;;16.15;;
72388;SDS011;60566;48.062;9.930;2023-02-07T10:40:46;26.50;;;14.48;;
72388;SDS011;60566;48.062;9.930;2023-02-07T10:43:18;37.35;;;17.00;;
72388;SDS011;60566;48.062;9.930;2023-02-07T10:45:50;24.80;;;14.23;;
72388;SDS011;60566;48.062;9.930;2023-02-07T10:48:17;29.23;;;14.85;;
72388;SDS011;60566;48.062;9.930;2023-02-07T10:50:42;34.53;;;15.68;;
72388;SDS011;60566;48.062;9.930;2023-02-07T10:53:09;30.25;;;15.45;;
72388;SDS011;60566;48.062;9.930;2023-02-07T10:55:39;32.65;;;17.02;;
72388;SDS011;60566;48.062;9.930;2023-02-07T10:58:06;24.55;;;13.88;;
72388;SDS011;60566;48.062;9.930;2023-02-07T11:00:33;30.52;;;15.45;;
72388;SDS011;60566;48.062;9.930;2023-02-07T11:03:03;30.02;;;15.23;;
72388;SDS011;60566;48.062;9.930;2023-02-07T11:05:36;26.60;;;15.27;;
72388;SDS011;60566;48.062;9.930;2023-02-07T11:08:03;31.73;;;16.80;;
72388;SDS011;60566;48.062;9.930;2023-02-07T11:10:33;26.38;;;15.38;;
72388;SDS011;60566;48.062;9.930;2023-02-07T11:12:59;29.88;;;15.23;;
72388;SDS011;60566;48.062;9.930;2023-02-07T11:15:28;28.48;;;16.35;;
72388;SDS011;60566;48.062;9.930;2023-02-07T11:17:57;30.25;;;16.60;;
72388;SDS011;60566;48.062;9.930;2023-02-07T11:20:23;27.95;;;15.00;;
72388;SDS011;60566;48.062;9.930;2023-02-07T11:22:51;30.25;;;16.52;;
72388;SDS011;60566;48.062;9.930;2023-02-07T11:25:17;32.78;;;19.10;;
72388;SDS011;60566;48.062;9.930;2023-02-07T11:27:44;28.98;;;15.95;;
72388;SDS011;60566;48.062;9.930;2023-02-07T11:30:13;28.92;;;15.40;;
72388;SDS011;60566;48.062;9.930;2023-02-07T11:32:40;29.83;;;14.13;;
72388;SDS011;60566;48.062;9.930;2023-02-07T11:35:06;27.13;;;17.02;;
72388;SDS011;60566;48.062;9.930;2023-02-07T11:37:33;25.67;;;14.23;;
72388;SDS011;60566;48.062;9.930;2023-02-07T11:40:15;24.13;;;14.77;;
72388;SDS011;60566;48.062;9.930;2023-02-07T11:42:47;26.55;;;15.55;;
72388;SDS011;60566;48.062;9.930;2023-02-07T11:45:14;23.88;;;14.35;;
72388;SDS011;60566;48.062;9.930;2023-02-07T11:47:40;26.23;;;13.70;;
72388;SDS011;60566;48.062;9.930;2023-02-07T11:50:07;31.70;;;15.95;;
72388;SDS011;60566;48.062;9.930;2023-02-07T11:52:47;30.50;;;15.85;;
72388;SDS011;60566;48.062;9.930;2023-02-07T11:55:15;25.77;;;15.60;;
72388;SDS011;60566;48.062;9.930;2023-02-07T11:57:45;25.25;;;14.48;;
72388;SDS011;60566;48.062;9.930;2023-02-07T12:00:15;25.52;;;14.32;;
72388;SDS011;60566;48.062;9.930;2023-02-07T12:02:44;24.13;;;13.88;;
72388;SDS011;60566;48.062;9.930;2023-02-07T12:05:16;25.23;;;14.32;;
72388;SDS011;60566;48.062;9.930;2023-02-07T12:07:43;26.23;;;14.02;;
72388;SDS011;60566;48.062;9.930;2023-02-07T12:10:12;28.02;;;14.32;;
72388;SDS011;60566;48.062;9.930;2023-02-07T12:12:40;20.30;;;11.50;;
72388;SDS011;60566;48.062;9.930;2023-02-07T12:15:09;27.92;;;15.88;;
72388;SDS011;60566;48.062;9.930;2023-02-07T12:17:41;26.92;;;14.18;;
72388;SDS011;60566;48.062;9.930;2023-02-07T12:20:15;25.42;;;14.68;;
72388;SDS011;60566;48.062;9.930;2023-02-07T12:22:46;27.88;;;14.27;;
72388;SDS011;60566;48.062;9.930;2023-02-07T12:25:17;29.63;;;15.82;;
72388;SDS011;60566;48.062;9.930;2023-02-07T12:27:44;25.83;;;14.27;;
72388;SDS011;60566;48.062;9.930;2023-02-07T12:30:13;23.52;;;13.13;;
72388;SDS011;60566;48.062;9.930;2023-02-07T12:32:43;26.08;;;15.40;;
72388;SDS011;60566;48.062;9.930;2023-02-07T12:35:14;25.75;;;15.60;;
72388;SDS011;60566;48.062;9.930;2023-02-07T12:37:44;27.23;;;15.20;;
72388;SDS011;60566;48.062;9.930;2023-02-07T12:40:17;32.25;;;17.00;;
72388;SDS011;60566;48.062;9.930;2023-02-07T12:42:48;27.35;;;16.13;;
72388;SDS011;60566;48.062;9.930;2023-02-07T12:45:17;27.65;;;15.05;;
72388;SDS011;60566;48.062;9.930;2023-02-07T12:47:51;25.92;;;14.52;;
72388;SDS011;60566;48.062;9.930;2023-02-07T12:50:26;23.88;;;13.75;;
72388;SDS011;60566;48.062;9.930;2023-02-07T12:53:05;21.45;;;12.00;;
72388;SDS011;60566;48.062;9.930;2023-02-07T12:55:39;22.98;;;14.05;;
72388;SDS011;60566;48.062;9.930;2023-02-07T12:58:15;29.35;;;15.70;;
72388;SDS011;60566;48.062;9.930;2023-02-07T13:00:50;24.35;;;13.95;;
72388;SDS011;60566;48.062;9.930;2023-02-07T13:03:23;26.38;;;14.85;;
72388;SDS011;60566;48.062;9.930;2023-02-07T13:06:04;25.10;;;12.82;;
72388;SDS011;60566;48.062;9.930;2023-02-07T13:08:39;23.05;;;12.60;;
72388;SDS011;60566;48.062;9.930;2023-02-07T13:11:12;24.48;;;13.57;;
72388;SDS011;60566;48.062;9.930;2023-02-07T13:13:45;25.95;;;15.23;;
72388;SDS011;60566;48.062;9.930;2023-02-07T13:16:15;24.50;;;13.77;;
72388;SDS011;60566;48.062;9.930;2023-02-07T13:18:45;27.02;;;13.75;;
72388;SDS011;60566;48.062;9.930;2023-02-07T13:21:16;23.55;;;13.40;;
72388;SDS011;60566;48.062;9.930;2023-02-07T13:23:47;24.08;;;14.55;;
72388;SDS011;60566;48.062;9.930;2023-02-07T13:26:13;26.80;;;14.02;;
72388;SDS011;60566;48.062;9.930;2023-02-07T13:28:41;29.08;;;15.98;;
72388;SDS011;60566;48.062;9.930;2023-02-07T13:31:10;24.75;;;14.77;;
72388;SDS011;60566;48.062;9.930;2023-02-07T13:33:38;33.22;;;16.45;;
72388;SDS011;60566;48.062;9.930;2023-02-07T13:36:10;27.95;;;16.00;;
72388;SDS011;60566;48.062;9.930;2023-02-07T13:38:41;24.85;;;14.23;;
72388;SDS011;60566;48.062;9.930;2023-02-07T13:41:14;24.23;;;14.10;;
72388;SDS011;60566;48.062;9.930;2023-02-07T13:43:44;23.70;;;13.55;;
72388;SDS011;60566;48.062;9.930;2023-02-07T13:46:18;30.33;;;13.88;;
72388;SDS011;60566;48.062;9.930;2023-02-07T13:48:58;22.95;;;13.73;;
72388;SDS011;60566;48.062;9.930;2023-02-07T13:51:30;29.83;;;16.30;;
72388;SDS011;60566;48.062;9.930;2023-02-07T13:54:14;27.40;;;16.55;;
72388;SDS011;60566;48.062;9.930;2023-02-07T13:56:54;26.67;;;13.45;;
72388;SDS011;60566;48.062;9.930;2023-02-07T13:59:33;27.42;;;14.88;;
72388;SDS011;60566;48.062;9.930;2023-02-07T14:01:59;26.52;;;15.05;;
72388;SDS011;60566;48.062;9.930;2023-02-07T14:04:25;29.30;;;15.73;;
72388;SDS011;60566;48.062;9.930;2023-02-07T14:07:16;32.15;;;16.10;;
72388;SDS011;60566;48.062;9.930;2023-02-07T14:09:43;31.80;;;15.95;;
72388;SDS011;60566;48.062;9.930;2023-02-07T14:12:14;26.77;;;15.27;;
72388;SDS011;60566;48.062;9.930;2023-02-07T14:14:43;27.80;;;15.63;;
72388;SDS011;60566;48.062;9.930;2023-02-07T14:17:09;31.15;;;17.13;;
72388;SDS011;60566;48.062;9.930;2023-02-07T14:19:47;32.97;;;18.77;;
72388;SDS011;60566;48.062;9.930;2023-02-07T14:22:24;28.48;;;15.40;;
72388;SDS011;60566;48.062;9.930;2023-02-07T14:25:11;28.77;;;15.95;;
72388;SDS011;60566;48.062;9.930;2023-02-07T14:28:05;30.35;;;15.93;;
72388;SDS011;60566;48.062;9.930;2023-02-07T14:30:34;25.92;;;15.55;;